createdAt,value
2022-10-18T00:02:28.783Z,13.63
2022-10-18T00:05:30.633Z,13.63
2022-10-18T00:38:58.646Z,14.26
2022-10-18T00:42:00.504Z,14.40
2022-10-18T00:45:15.878Z,14.54
2022-10-18T00:48:17.761Z,15.04
2022-10-18T00:51:20.178Z,14.96
2022-10-18T00:54:21.977Z,14.34
2022-10-18T00:57:24.029Z,14.00
2022-10-18T01:00:25.935Z,13.66
2022-10-18T01:03:27.727Z,13.69
2022-10-18T01:06:29.643Z,13.52
2022-10-18T01:09:46.087Z,13.72
2022-10-18T01:12:57.074Z,14.29
2022-10-18T01:15:59.475Z,14.04
2022-10-18T01:19:24.617Z,13.22
2022-10-18T01:22:46.680Z,13.30
2022-10-18T01:26:02.730Z,13.28
2022-10-18T01:29:22.607Z,14.21
2022-10-18T01:32:25.419Z,13.96
2022-10-18T01:35:30.336Z,13.62
2022-10-18T01:38:32.338Z,13.32
2022-10-18T01:41:34.376Z,14.12
2022-10-18T01:44:36.219Z,14.34
2022-10-18T01:47:38.030Z,14.37
2022-10-18T01:50:39.955Z,14.17
2022-10-18T01:53:42.046Z,14.30
2022-10-18T01:56:51.194Z,14.32
2022-10-18T02:00:00.781Z,14.08
2022-10-18T02:03:07.243Z,13.72
2022-10-18T02:06:27.488Z,13.97
2022-10-18T02:09:39.364Z,13.97
2022-10-18T02:12:41.990Z,14.17
2022-10-18T02:15:44.729Z,13.62
2022-10-18T02:18:57.765Z,14.21
2022-10-18T02:21:59.776Z,14.20
2022-10-18T02:25:02.631Z,13.69
2022-10-18T02:28:04.868Z,13.90
2022-10-18T02:31:09.594Z,13.73
2022-10-18T02:34:19.948Z,14.02
2022-10-18T02:37:21.880Z,14.35
2022-10-18T02:40:23.710Z,14.39
2022-10-18T02:43:25.554Z,14.00
2022-10-18T02:49:34.121Z,13.24
2022-10-18T02:52:35.912Z,13.62
2022-10-18T02:55:37.822Z,14.01
2022-10-18T02:58:39.719Z,13.61
2022-10-18T03:01:41.682Z,13.60
2022-10-18T03:04:43.520Z,13.26
2022-10-18T03:07:45.336Z,12.95
2022-10-18T03:10:47.137Z,13.13
2022-10-18T03:13:50.591Z,13.92
2022-10-18T03:16:52.395Z,13.09
2022-10-18T03:19:54.324Z,13.24
2022-10-18T03:22:56.141Z,12.61
2022-10-18T03:25:57.941Z,12.37
2022-10-18T03:28:59.810Z,11.96
2022-10-18T03:32:01.652Z,11.80
2022-10-18T03:35:03.939Z,12.89
2022-10-18T03:38:05.903Z,13.17
2022-10-18T03:41:07.743Z,13.55
2022-10-18T03:44:09.565Z,13.52
2022-10-18T03:47:11.997Z,13.67
2022-10-18T03:50:13.783Z,13.86
2022-10-18T03:53:15.623Z,13.76
2022-10-18T03:56:17.495Z,13.54
2022-10-18T03:59:19.378Z,13.31
2022-10-18T04:02:21.191Z,12.58
2022-10-18T04:05:24.176Z,12.00
2022-10-18T04:08:26.198Z,12.81
2022-10-18T04:11:28.008Z,12.82
2022-10-18T04:14:29.816Z,12.18
2022-10-18T04:17:31.888Z,12.19
2022-10-18T04:20:33.909Z,12.25
2022-10-18T04:23:38.676Z,12.64
2022-10-18T04:26:40.842Z,12.53
2022-10-18T04:29:42.712Z,12.28
2022-10-18T04:32:44.548Z,12.05
2022-10-18T04:35:46.477Z,12.40
2022-10-18T04:38:48.287Z,12.34
2022-10-18T04:41:50.104Z,12.57
2022-10-18T04:44:52.026Z,11.94
2022-10-18T04:47:53.924Z,12.31
2022-10-18T04:50:55.853Z,13.25
2022-10-18T04:53:57.651Z,12.56
2022-10-18T04:56:59.489Z,12.50
2022-10-18T05:00:01.402Z,12.78
2022-10-18T05:03:03.279Z,13.16
2022-10-18T05:06:05.639Z,13.04
2022-10-18T05:09:07.673Z,13.30
2022-10-18T05:12:09.480Z,13.25
2022-10-18T05:15:11.467Z,13.01
2022-10-18T05:18:13.367Z,13.13
2022-10-18T05:21:15.831Z,13.53
2022-10-18T05:24:17.709Z,13.34
2022-10-18T05:27:19.553Z,12.83
2022-10-18T05:30:21.742Z,12.87
2022-10-18T05:33:23.541Z,12.55
2022-10-18T05:36:26.194Z,13.14
2022-10-18T05:39:28.014Z,12.54
2022-10-18T05:42:30.130Z,13.18
2022-10-18T05:45:32.206Z,13.71
2022-10-18T05:48:34.759Z,13.34
2022-10-18T05:51:36.549Z,13.42
2022-10-18T05:54:38.470Z,13.61
2022-10-18T05:57:40.332Z,14.23
2022-10-18T06:00:42.253Z,14.04
2022-10-18T06:03:44.093Z,14.09
2022-10-18T06:06:46.005Z,14.50
2022-10-18T06:09:48.541Z,15.37
2022-10-18T06:12:50.353Z,15.73
2022-10-18T06:15:55.536Z,16.95
2022-10-18T06:18:57.416Z,17.13
2022-10-18T06:21:59.255Z,17.54
2022-10-18T06:25:01.196Z,17.52
2022-10-18T06:28:05.968Z,18.19
2022-10-18T06:31:10.735Z,18.50
2022-10-18T06:34:12.632Z,18.72
2022-10-18T06:37:14.429Z,18.93
2022-10-18T06:40:16.467Z,18.23
2022-10-18T06:43:21.521Z,19.33
2022-10-18T06:46:23.762Z,18.52
2022-10-18T06:49:25.738Z,19.79
2022-10-18T06:52:27.846Z,21.15
2022-10-18T06:55:32.689Z,21.47
2022-10-18T06:58:35.519Z,21.34
2022-10-18T07:01:39.875Z,21.47
2022-10-18T07:04:42.511Z,21.89
2022-10-18T07:07:44.627Z,23.07
2022-10-18T07:10:53.330Z,22.21
2022-10-18T07:14:00.420Z,22.36
2022-10-18T07:17:02.244Z,22.44
2022-10-18T07:20:04.452Z,21.03
2022-10-18T07:23:08.582Z,19.51
2022-10-18T07:26:11.998Z,19.49
2022-10-18T07:29:14.343Z,20.86
2022-10-18T07:32:16.273Z,19.72
2022-10-18T07:35:18.150Z,18.10
2022-10-18T07:38:20.026Z,17.29
2022-10-18T07:41:22.168Z,16.82
2022-10-18T07:44:24.147Z,16.76
2022-10-18T07:47:27.270Z,17.85
2022-10-18T07:50:29.992Z,16.21
2022-10-18T07:53:31.986Z,16.68
2022-10-18T07:56:34.257Z,16.72
2022-10-18T07:59:37.780Z,15.87
2022-10-18T08:02:39.656Z,16.78
2022-10-18T08:05:41.525Z,16.26
2022-10-18T08:08:43.501Z,16.57
2022-10-18T08:11:45.452Z,16.82
2022-10-18T08:14:47.385Z,18.04
2022-10-18T08:17:49.221Z,18.23
2022-10-18T08:20:51.066Z,18.16
2022-10-18T08:23:53.955Z,17.35
2022-10-18T08:26:55.845Z,16.94
2022-10-18T08:29:59.925Z,16.93
2022-10-18T08:33:02.266Z,17.12
2022-10-18T08:36:07.714Z,17.49
2022-10-18T08:39:09.576Z,17.69
2022-10-18T08:42:20.237Z,17.86
2022-10-18T08:45:37.556Z,17.68
2022-10-18T08:48:48.046Z,18.03
2022-10-18T08:51:50.036Z,18.03
2022-10-18T08:55:10.409Z,18.70
2022-10-18T08:58:18.269Z,18.48
2022-10-18T09:01:38.909Z,17.97
2022-10-18T09:04:40.886Z,18.26
2022-10-18T09:07:44.094Z,18.24
2022-10-18T09:11:21.822Z,18.14
2022-10-18T09:14:23.981Z,18.95
2022-10-18T09:17:48.283Z,18.91
2022-10-18T09:21:14.011Z,18.40
2022-10-18T09:24:19.544Z,18.92
2022-10-18T09:27:22.904Z,19.49
2022-10-18T09:30:33.674Z,18.97
2022-10-18T09:33:39.367Z,18.49
2022-10-18T09:36:41.473Z,18.41
2022-10-18T09:39:43.332Z,18.58
2022-10-18T09:42:51.876Z,19.96
2022-10-18T09:45:53.924Z,20.23
2022-10-18T09:49:00.763Z,20.06
2022-10-18T09:52:04.258Z,19.88
2022-10-18T09:55:09.116Z,19.82
2022-10-18T09:58:10.991Z,20.52
2022-10-18T10:01:13.749Z,19.51
2022-10-18T10:04:15.548Z,19.81
2022-10-18T10:07:21.776Z,20.25
2022-10-18T10:10:24.368Z,23.77
2022-10-18T10:13:28.044Z,23.06
2022-10-18T10:16:29.967Z,24.32
2022-10-18T10:19:36.427Z,23.35
2022-10-18T10:22:39.465Z,22.16
2022-10-18T10:25:41.306Z,21.79
2022-10-18T10:28:46.502Z,22.32
2022-10-18T10:31:48.585Z,22.18
2022-10-18T10:34:50.663Z,21.27
2022-10-18T10:37:53.380Z,21.85
2022-10-18T10:40:55.979Z,21.46
2022-10-18T10:43:57.828Z,22.32
2022-10-18T10:46:59.965Z,22.55
2022-10-18T10:50:09.033Z,22.66
2022-10-18T10:53:43.433Z,22.78
2022-10-18T10:57:04.095Z,21.20
2022-10-18T11:00:06.281Z,22.61
2022-10-18T11:03:28.052Z,22.38
2022-10-18T11:06:43.290Z,22.40
2022-10-18T11:09:48.044Z,22.07
2022-10-18T11:12:54.247Z,21.97
2022-10-18T11:16:00.509Z,22.67
2022-10-18T11:19:10.787Z,23.74
2022-10-18T11:22:17.202Z,23.11
2022-10-18T11:25:19.039Z,25.92
2022-10-18T11:28:34.843Z,27.41
2022-10-18T11:31:42.256Z,26.79
2022-10-18T11:35:03.033Z,26.93
2022-10-18T11:38:36.934Z,24.16
2022-10-18T11:41:42.864Z,24.46
2022-10-18T11:44:50.526Z,23.27
2022-10-18T11:47:55.973Z,22.54
2022-10-18T11:51:13.306Z,22.62
2022-10-18T11:54:33.672Z,23.35
2022-10-18T11:57:35.792Z,22.97
2022-10-18T12:00:41.413Z,22.91
2022-10-18T12:04:02.457Z,23.25
2022-10-18T12:07:05.210Z,23.08
2022-10-18T12:10:07.743Z,23.35
2022-10-18T12:13:12.356Z,23.00
2022-10-18T12:16:14.237Z,22.70
2022-10-18T12:19:26.354Z,22.54
2022-10-18T12:22:34.257Z,22.60
2022-10-18T12:25:37.907Z,23.51
2022-10-18T12:28:46.175Z,23.42
2022-10-18T12:31:49.152Z,22.01
2022-10-18T12:34:52.770Z,22.65
2022-10-18T12:38:13.734Z,22.57
2022-10-18T12:41:42.120Z,23.07
2022-10-18T12:44:44.448Z,23.68
2022-10-18T12:47:46.316Z,24.72
2022-10-18T12:50:48.269Z,24.89
2022-10-18T12:53:53.536Z,24.37
2022-10-18T12:56:55.384Z,25.68
2022-10-18T12:59:57.550Z,24.99
2022-10-18T13:03:20.205Z,25.79
2022-10-18T13:06:22.565Z,26.58
2022-10-18T13:09:25.181Z,29.09
2022-10-18T13:12:27.009Z,30.95
2022-10-18T13:15:48.272Z,33.77
2022-10-18T13:18:50.150Z,34.38
2022-10-18T13:22:10.035Z,33.93
2022-10-18T13:25:26.328Z,34.26
2022-10-18T13:28:34.337Z,33.35
2022-10-18T13:31:49.087Z,35.47
2022-10-18T13:34:51.708Z,37.98
2022-10-18T13:38:00.002Z,38.20
2022-10-18T13:41:01.835Z,37.46
2022-10-18T13:44:11.590Z,34.07
2022-10-18T13:47:14.335Z,31.14
2022-10-18T13:50:31.700Z,29.16
2022-10-18T13:53:39.953Z,27.06
2022-10-18T13:56:47.889Z,26.92
2022-10-18T13:59:52.520Z,24.45
2022-10-18T14:02:59.928Z,23.47
2022-10-18T14:06:07.211Z,22.91
2022-10-18T14:12:44.718Z,22.75
2022-10-18T14:15:47.340Z,22.97
2022-10-18T14:18:49.473Z,23.24
2022-10-18T14:21:53.810Z,23.65
2022-10-18T14:24:56.742Z,23.40
2022-10-18T14:28:14.978Z,22.86
2022-10-18T14:31:17.371Z,22.16
2022-10-18T14:34:19.281Z,22.66
2022-10-18T14:37:34.701Z,23.45
2022-10-18T14:40:39.470Z,23.39
2022-10-18T14:43:41.376Z,22.98
2022-10-18T14:46:43.973Z,23.03
2022-10-18T14:49:46.544Z,22.66
2022-10-18T14:52:48.490Z,22.06
2022-10-18T14:55:54.111Z,21.90
2022-10-18T14:59:00.585Z,22.19
2022-10-18T15:02:05.037Z,22.52
2022-10-18T15:05:06.968Z,22.33
2022-10-18T15:08:08.779Z,21.70
2022-10-18T15:11:14.099Z,21.72
2022-10-18T15:14:19.727Z,22.65
2022-10-18T15:17:24.040Z,22.77
2022-10-18T15:20:31.709Z,22.36
2022-10-18T15:23:33.552Z,22.06
2022-10-18T15:26:35.438Z,22.75
2022-10-18T15:29:38.077Z,22.57
2022-10-18T15:32:46.437Z,21.88
2022-10-18T15:35:48.251Z,22.49
2022-10-18T15:38:50.320Z,22.63
2022-10-18T15:41:56.426Z,22.21
2022-10-18T15:44:58.295Z,22.42
2022-10-18T15:48:00.136Z,21.98
2022-10-18T15:51:06.410Z,22.10
2022-10-18T15:54:10.655Z,22.29
2022-10-18T15:57:12.518Z,22.35
2022-10-18T16:00:17.222Z,22.10
2022-10-18T16:03:19.477Z,22.17
2022-10-18T16:06:21.311Z,21.74
2022-10-18T16:09:23.867Z,21.49
2022-10-18T16:12:26.095Z,21.39
2022-10-18T16:15:28.206Z,21.10
2022-10-18T16:18:30.041Z,21.16
2022-10-18T16:21:35.209Z,21.18
2022-10-18T16:24:37.102Z,21.70
2022-10-18T16:27:39.016Z,21.30
2022-10-18T16:30:41.490Z,21.50
2022-10-18T16:33:43.646Z,20.96
2022-10-18T16:36:45.528Z,21.22
2022-10-18T16:39:47.386Z,20.62
2022-10-18T16:42:49.206Z,20.88
2022-10-18T16:45:51.633Z,20.34
2022-10-18T16:48:53.724Z,20.32
2022-10-18T16:51:55.707Z,20.34
2022-10-18T16:54:57.855Z,20.43
2022-10-18T16:57:59.829Z,20.05
2022-10-18T17:01:04.050Z,20.17
2022-10-18T17:04:08.531Z,20.32
2022-10-18T17:07:12.870Z,20.10
2022-10-18T17:10:15.561Z,19.95
2022-10-18T17:13:17.349Z,19.77
2022-10-18T17:16:19.536Z,19.76
2022-10-18T17:19:21.377Z,19.64
2022-10-18T17:22:23.360Z,19.70
2022-10-18T17:25:25.296Z,19.00
2022-10-18T17:28:27.193Z,19.24
2022-10-18T17:31:29.402Z,18.78
2022-10-18T17:34:31.292Z,18.87
2022-10-18T17:37:33.537Z,18.39
2022-10-18T17:40:35.970Z,19.11
2022-10-18T17:46:45.249Z,18.67
2022-10-18T17:49:47.815Z,19.43
2022-10-18T17:52:50.027Z,19.23
2022-10-18T17:55:59.018Z,18.60
2022-10-18T17:59:03.592Z,18.09
2022-10-18T18:02:05.446Z,17.84
2022-10-18T18:05:07.664Z,18.28
2022-10-18T18:08:09.508Z,18.63
2022-10-18T18:11:11.520Z,18.66
2022-10-18T18:14:13.475Z,17.94
2022-10-18T18:17:17.021Z,17.55
2022-10-18T18:20:24.441Z,18.26
2022-10-18T18:23:26.387Z,18.29
2022-10-18T18:26:30.723Z,18.35
2022-10-18T18:29:32.614Z,18.13
2022-10-18T18:32:34.848Z,17.64
2022-10-18T18:35:36.830Z,16.73
2022-10-18T18:38:39.416Z,17.26
2022-10-18T18:41:41.227Z,17.45
2022-10-18T18:44:46.126Z,17.65
2022-10-18T18:47:48.097Z,17.06
2022-10-18T18:50:51.405Z,17.08
2022-10-18T18:53:53.342Z,16.74
2022-10-18T18:56:55.216Z,17.00
2022-10-18T18:59:57.153Z,16.72
2022-10-18T19:02:59.010Z,16.71
2022-10-18T19:06:04.937Z,16.84
2022-10-18T19:09:08.124Z,16.64
2022-10-18T19:12:10.102Z,17.15
2022-10-18T19:15:12.139Z,17.23
2022-10-18T19:18:14.058Z,16.46
2022-10-18T19:21:15.875Z,16.00
2022-10-18T19:24:18.133Z,16.62
2022-10-18T19:27:19.963Z,17.06
2022-10-18T19:30:21.902Z,16.56
2022-10-18T19:33:41.183Z,17.31
2022-10-18T19:36:46.931Z,17.29
2022-10-18T19:39:48.958Z,17.08
2022-10-18T19:42:50.911Z,16.33
2022-10-18T19:45:52.854Z,16.08
2022-10-18T19:48:54.753Z,16.85
2022-10-18T19:51:56.833Z,16.49
2022-10-18T19:54:58.904Z,16.90
2022-10-18T19:58:00.734Z,16.90
2022-10-18T20:01:02.761Z,16.92
2022-10-18T20:04:05.077Z,15.34
2022-10-18T20:07:07.170Z,16.44
2022-10-18T20:10:09.759Z,16.50
2022-10-18T20:13:11.620Z,16.83
2022-10-18T20:16:14.013Z,16.85
2022-10-18T20:19:15.968Z,16.34
2022-10-18T20:22:17.875Z,16.38
2022-10-18T20:25:19.740Z,15.96
2022-10-18T20:28:22.629Z,16.02
2022-10-18T20:31:25.494Z,16.24
2022-10-18T20:34:28.618Z,15.65
2022-10-18T20:37:30.709Z,15.13
2022-10-18T20:40:32.655Z,15.89
2022-10-18T20:43:34.791Z,16.47
2022-10-18T20:46:36.740Z,16.02
2022-10-18T20:49:38.578Z,15.46
2022-10-18T20:52:40.398Z,14.97
2022-10-18T20:55:43.616Z,14.59
2022-10-18T20:58:46.019Z,14.71
2022-10-18T21:01:47.940Z,14.60
2022-10-18T21:04:49.807Z,14.50
2022-10-18T21:07:51.685Z,15.10
2022-10-18T21:10:53.516Z,15.66
2022-10-18T21:14:00.193Z,16.11
2022-10-18T21:17:02.047Z,15.77
2022-10-18T21:20:04.195Z,14.62
2022-10-18T21:23:05.998Z,15.27
2022-10-18T21:26:08.341Z,15.28
2022-10-18T21:29:11.147Z,15.51
2022-10-18T21:32:13.044Z,15.35
2022-10-18T21:35:14.892Z,14.35
2022-10-18T21:38:16.708Z,14.66
2022-10-18T21:41:19.408Z,14.99
2022-10-18T21:44:21.451Z,15.14
2022-10-18T21:47:23.375Z,15.19
2022-10-18T21:50:25.323Z,14.86
2022-10-18T21:53:27.137Z,14.61
2022-10-18T21:56:30.139Z,14.07
2022-10-18T21:59:32.015Z,14.13
2022-10-18T22:02:34.131Z,13.92
2022-10-18T22:05:36.330Z,14.69
2022-10-18T22:08:38.274Z,14.09
2022-10-18T22:11:44.638Z,14.59
2022-10-18T22:14:46.505Z,14.58
2022-10-18T22:17:48.360Z,15.02
2022-10-18T22:20:56.642Z,14.34
2022-10-18T22:23:58.446Z,13.88
2022-10-18T22:27:00.230Z,14.04
2022-10-18T22:30:02.157Z,14.31
2022-10-18T22:33:04.246Z,15.01
2022-10-18T22:36:06.074Z,15.20
2022-10-18T22:39:08.029Z,14.69
2022-10-18T22:42:09.888Z,14.61
2022-10-18T22:45:11.794Z,14.63
2022-10-18T22:48:13.662Z,15.47
2022-10-18T22:51:15.749Z,15.59
2022-10-18T22:54:17.620Z,15.99
2022-10-18T22:57:19.435Z,14.57
2022-10-18T23:00:21.236Z,14.28
2022-10-18T23:03:23.133Z,14.57
2022-10-18T23:06:25.859Z,15.22
2022-10-18T23:09:27.711Z,14.99
2022-10-18T23:12:29.754Z,14.77
2022-10-18T23:15:33.648Z,15.27
2022-10-18T23:18:35.808Z,15.04
2022-10-18T23:21:37.658Z,14.35
2022-10-18T23:24:39.556Z,14.44
2022-10-18T23:30:43.413Z,14.85
2022-10-18T23:33:46.114Z,15.49
2022-10-18T23:36:47.932Z,14.59
2022-10-18T23:39:49.760Z,14.48
2022-10-18T23:42:51.668Z,14.52
2022-10-18T23:45:53.462Z,14.29
2022-10-18T23:48:55.433Z,14.85
2022-10-18T23:51:57.296Z,14.46
2022-10-18T23:54:59.239Z,15.73
2022-10-18T23:58:01.201Z,14.32
